sensor_id;sensor_type;location;lat;lon;timestamp;P1;durP1;ratioP1;P2;durP2;ratioP2
31336;SDS011;22846;42.654;23.314;2023-04-01T00:00:03;6.47;;;4.05;;
31336;SDS011;22846;42.654;23.314;2023-04-01T00:02:29;6.90;;;4.20;;
31336;SDS011;22846;42.654;23.314;2023-04-01T00:04:55;6.90;;;3.90;;
31336;SDS011;22846;42.654;23.314;2023-04-01T00:07:20;7.13;;;3.80;;
31336;SDS011;22846;42.654;23.314;2023-04-01T00:09:46;8.38;;;3.55;;
31336;SDS011;22846;42.654;23.314;2023-04-01T00:12:11;6.55;;;3.88;;
31336;SDS011;22846;42.654;23.314;2023-04-01T00:14:36;8.60;;;3.88;;
31336;SDS011;22846;42.654;23.314;2023-04-01T00:17:02;7.63;;;4.05;;
31336;SDS011;22846;42.654;23.314;2023-04-01T00:19:28;6.50;;;3.75;;
31336;SDS011;22846;42.654;23.314;2023-04-01T00:21:53;5.70;;;3.88;;
31336;SDS011;22846;42.654;23.314;2023-04-01T00:24:19;8.18;;;3.95;;
31336;SDS011;22846;42.654;23.314;2023-04-01T00:26:44;7.10;;;3.55;;
31336;SDS011;22846;42.654;23.314;2023-04-01T00:29:10;6.20;;;3.70;;
31336;SDS011;22846;42.654;23.314;2023-04-01T00:31:35;6.38;;;3.63;;
31336;SDS011;22846;42.654;23.314;2023-04-01T00:34:00;5.95;;;3.88;;
31336;SDS011;22846;42.654;23.314;2023-04-01T00:36:26;5.93;;;3.67;;
31336;SDS011;22846;42.654;23.314;2023-04-01T00:38:51;6.25;;;3.92;;
31336;SDS011;22846;42.654;23.314;2023-04-01T00:41:18;5.90;;;3.70;;
31336;SDS011;22846;42.654;23.314;2023-04-01T00:43:46;7.32;;;3.40;;
31336;SDS011;22846;42.654;23.314;2023-04-01T00:46:14;5.47;;;3.80;;
31336;SDS011;22846;42.654;23.314;2023-04-01T00:48:42;6.75;;;3.78;;
31336;SDS011;22846;42.654;23.314;2023-04-01T00:51:23;6.25;;;3.78;;
31336;SDS011;22846;42.654;23.314;2023-04-01T00:53:52;7.60;;;3.70;;
31336;SDS011;22846;42.654;23.314;2023-04-01T00:59:08;6.70;;;3.63;;
31336;SDS011;22846;42.654;23.314;2023-04-01T01:01:39;5.35;;;3.35;;
31336;SDS011;22846;42.654;23.314;2023-04-01T01:04:05;5.88;;;3.72;;
31336;SDS011;22846;42.654;23.314;2023-04-01T01:12:23;5.93;;;3.70;;
31336;SDS011;22846;42.654;23.314;2023-04-01T01:22:39;5.85;;;3.85;;
31336;SDS011;22846;42.654;23.314;2023-04-01T01:25:20;6.88;;;3.75;;
31336;SDS011;22846;42.654;23.314;2023-04-01T01:28:21;6.10;;;3.65;;
31336;SDS011;22846;42.654;23.314;2023-04-01T01:31:02;5.35;;;3.47;;
31336;SDS011;22846;42.654;23.314;2023-04-01T01:34:14;8.00;;;3.72;;
31336;SDS011;22846;42.654;23.314;2023-04-01T01:36:38;6.35;;;3.85;;
31336;SDS011;22846;42.654;23.314;2023-04-01T01:39:07;5.40;;;3.65;;
31336;SDS011;22846;42.654;23.314;2023-04-01T01:41:35;5.35;;;3.78;;
31336;SDS011;22846;42.654;23.314;2023-04-01T01:44:04;5.13;;;3.50;;
31336;SDS011;22846;42.654;23.314;2023-04-01T01:46:32;5.32;;;3.63;;
31336;SDS011;22846;42.654;23.314;2023-04-01T01:48:58;5.45;;;3.78;;
31336;SDS011;22846;42.654;23.314;2023-04-01T01:51:25;5.57;;;3.40;;
31336;SDS011;22846;42.654;23.314;2023-04-01T01:53:52;8.07;;;4.00;;
31336;SDS011;22846;42.654;23.314;2023-04-01T01:56:18;5.88;;;3.42;;
31336;SDS011;22846;42.654;23.314;2023-04-01T01:58:48;4.88;;;3.40;;
31336;SDS011;22846;42.654;23.314;2023-04-01T02:01:20;4.90;;;3.22;;
31336;SDS011;22846;42.654;23.314;2023-04-01T02:03:50;5.70;;;3.58;;
31336;SDS011;22846;42.654;23.314;2023-04-01T02:06:18;4.95;;;3.42;;
31336;SDS011;22846;42.654;23.314;2023-04-01T02:08:53;5.38;;;3.40;;
31336;SDS011;22846;42.654;23.314;2023-04-01T02:11:56;6.30;;;3.55;;
31336;SDS011;22846;42.654;23.314;2023-04-01T02:14:17;7.00;;;3.50;;
31336;SDS011;22846;42.654;23.314;2023-04-01T02:16:49;4.57;;;3.30;;
31336;SDS011;22846;42.654;23.314;2023-04-01T02:19:22;4.10;;;3.10;;
31336;SDS011;22846;42.654;23.314;2023-04-01T02:21:54;4.70;;;3.58;;
31336;SDS011;22846;42.654;23.314;2023-04-01T02:24:22;6.50;;;3.72;;
31336;SDS011;22846;42.654;23.314;2023-04-01T02:26:51;4.80;;;3.08;;
31336;SDS011;22846;42.654;23.314;2023-04-01T02:29:21;4.72;;;3.25;;
31336;SDS011;22846;42.654;23.314;2023-04-01T02:31:48;6.35;;;3.65;;
31336;SDS011;22846;42.654;23.314;2023-04-01T02:34:15;4.75;;;3.35;;
31336;SDS011;22846;42.654;23.314;2023-04-01T02:36:41;5.60;;;3.38;;
31336;SDS011;22846;42.654;23.314;2023-04-01T02:39:07;4.55;;;3.13;;
31336;SDS011;22846;42.654;23.314;2023-04-01T02:41:43;5.15;;;3.33;;
31336;SDS011;22846;42.654;23.314;2023-04-01T02:44:10;5.53;;;3.35;;
31336;SDS011;22846;42.654;23.314;2023-04-01T02:46:37;4.63;;;3.20;;
31336;SDS011;22846;42.654;23.314;2023-04-01T02:49:04;5.40;;;2.90;;
31336;SDS011;22846;42.654;23.314;2023-04-01T02:51:30;4.80;;;3.22;;
31336;SDS011;22846;42.654;23.314;2023-04-01T02:53:56;6.18;;;3.55;;
31336;SDS011;22846;42.654;23.314;2023-04-01T02:56:21;5.20;;;3.40;;
31336;SDS011;22846;42.654;23.314;2023-04-01T02:58:47;6.20;;;3.42;;
31336;SDS011;22846;42.654;23.314;2023-04-01T03:01:13;5.70;;;3.65;;
31336;SDS011;22846;42.654;23.314;2023-04-01T03:03:39;5.30;;;3.58;;
31336;SDS011;22846;42.654;23.314;2023-04-01T03:06:05;5.60;;;3.45;;
31336;SDS011;22846;42.654;23.314;2023-04-01T03:08:35;5.82;;;3.22;;
31336;SDS011;22846;42.654;23.314;2023-04-01T03:11:01;4.95;;;3.58;;
31336;SDS011;22846;42.654;23.314;2023-04-01T03:13:27;5.32;;;3.20;;
31336;SDS011;22846;42.654;23.314;2023-04-01T03:15:52;4.50;;;3.28;;
31336;SDS011;22846;42.654;23.314;2023-04-01T03:18:18;4.97;;;3.42;;
31336;SDS011;22846;42.654;23.314;2023-04-01T03:20:44;4.53;;;3.30;;
31336;SDS011;22846;42.654;23.314;2023-04-01T03:23:09;4.10;;;2.97;;
31336;SDS011;22846;42.654;23.314;2023-04-01T03:25:35;4.43;;;2.90;;
31336;SDS011;22846;42.654;23.314;2023-04-01T03:28:00;5.13;;;3.35;;
31336;SDS011;22846;42.654;23.314;2023-04-01T03:30:26;5.55;;;3.35;;
31336;SDS011;22846;42.654;23.314;2023-04-01T03:32:52;4.10;;;2.97;;
31336;SDS011;22846;42.654;23.314;2023-04-01T03:35:17;5.18;;;3.35;;
31336;SDS011;22846;42.654;23.314;2023-04-01T03:37:43;3.97;;;2.63;;
31336;SDS011;22846;42.654;23.314;2023-04-01T03:40:09;6.00;;;3.33;;
31336;SDS011;22846;42.654;23.314;2023-04-01T03:42:35;5.00;;;3.25;;
31336;SDS011;22846;42.654;23.314;2023-04-01T03:45:00;4.90;;;3.20;;
31336;SDS011;22846;42.654;23.314;2023-04-01T03:47:26;4.90;;;3.28;;
31336;SDS011;22846;42.654;23.314;2023-04-01T03:49:51;4.60;;;3.30;;
31336;SDS011;22846;42.654;23.314;2023-04-01T03:52:17;4.53;;;2.90;;
31336;SDS011;22846;42.654;23.314;2023-04-01T03:54:42;4.70;;;2.92;;
31336;SDS011;22846;42.654;23.314;2023-04-01T03:57:08;4.88;;;3.25;;
31336;SDS011;22846;42.654;23.314;2023-04-01T03:59:33;4.68;;;3.10;;
31336;SDS011;22846;42.654;23.314;2023-04-01T04:01:59;6.15;;;3.17;;
31336;SDS011;22846;42.654;23.314;2023-04-01T04:04:25;3.03;;;2.50;;
31336;SDS011;22846;42.654;23.314;2023-04-01T04:06:51;3.55;;;2.63;;
31336;SDS011;22846;42.654;23.314;2023-04-01T04:09:17;7.60;;;3.10;;
31336;SDS011;22846;42.654;23.314;2023-04-01T04:11:42;5.90;;;3.15;;
31336;SDS011;22846;42.654;23.314;2023-04-01T04:14:07;5.15;;;3.10;;
31336;SDS011;22846;42.654;23.314;2023-04-01T04:16:34;5.18;;;3.13;;
31336;SDS011;22846;42.654;23.314;2023-04-01T04:19:01;4.78;;;3.10;;
31336;SDS011;22846;42.654;23.314;2023-04-01T04:21:27;5.18;;;3.00;;
31336;SDS011;22846;42.654;23.314;2023-04-01T04:23:53;4.78;;;2.90;;
31336;SDS011;22846;42.654;23.314;2023-04-01T04:26:18;5.93;;;2.80;;
31336;SDS011;22846;42.654;23.314;2023-04-01T04:28:44;3.58;;;2.65;;
31336;SDS011;22846;42.654;23.314;2023-04-01T04:31:09;5.22;;;3.05;;
31336;SDS011;22846;42.654;23.314;2023-04-01T04:33:35;4.63;;;2.97;;
31336;SDS011;22846;42.654;23.314;2023-04-01T04:36:01;4.72;;;2.97;;
31336;SDS011;22846;42.654;23.314;2023-04-01T04:38:28;3.70;;;2.90;;
31336;SDS011;22846;42.654;23.314;2023-04-01T04:40:53;4.82;;;3.10;;
31336;SDS011;22846;42.654;23.314;2023-04-01T04:43:19;4.30;;;3.08;;
31336;SDS011;22846;42.654;23.314;2023-04-01T04:45:45;4.18;;;3.08;;
31336;SDS011;22846;42.654;23.314;2023-04-01T04:48:11;4.82;;;2.95;;
31336;SDS011;22846;42.654;23.314;2023-04-01T04:50:41;3.95;;;2.72;;
31336;SDS011;22846;42.654;23.314;2023-04-01T04:53:09;4.40;;;2.88;;
31336;SDS011;22846;42.654;23.314;2023-04-01T04:55:35;5.90;;;3.00;;
31336;SDS011;22846;42.654;23.314;2023-04-01T04:58:00;3.25;;;2.63;;
31336;SDS011;22846;42.654;23.314;2023-04-01T05:00:26;5.20;;;3.13;;
31336;SDS011;22846;42.654;23.314;2023-04-01T05:02:51;4.18;;;3.08;;
31336;SDS011;22846;42.654;23.314;2023-04-01T05:05:17;4.00;;;3.08;;
31336;SDS011;22846;42.654;23.314;2023-04-01T05:07:42;4.00;;;2.72;;
31336;SDS011;22846;42.654;23.314;2023-04-01T05:10:08;3.83;;;2.83;;
31336;SDS011;22846;42.654;23.314;2023-04-01T05:12:33;3.63;;;2.85;;
31336;SDS011;22846;42.654;23.314;2023-04-01T05:15:03;4.50;;;2.88;;
31336;SDS011;22846;42.654;23.314;2023-04-01T05:17:32;4.72;;;3.05;;
31336;SDS011;22846;42.654;23.314;2023-04-01T05:19:57;4.65;;;2.72;;
31336;SDS011;22846;42.654;23.314;2023-04-01T05:22:23;4.40;;;3.30;;
31336;SDS011;22846;42.654;23.314;2023-04-01T05:24:49;4.55;;;3.05;;
31336;SDS011;22846;42.654;23.314;2023-04-01T05:27:14;4.28;;;2.70;;
31336;SDS011;22846;42.654;23.314;2023-04-01T05:29:40;3.95;;;2.80;;
31336;SDS011;22846;42.654;23.314;2023-04-01T05:32:05;5.30;;;2.80;;
31336;SDS011;22846;42.654;23.314;2023-04-01T05:34:31;4.50;;;2.60;;
31336;SDS011;22846;42.654;23.314;2023-04-01T05:36:56;5.10;;;2.80;;
31336;SDS011;22846;42.654;23.314;2023-04-01T05:39:22;4.15;;;3.33;;
31336;SDS011;22846;42.654;23.314;2023-04-01T05:41:48;4.40;;;2.72;;
31336;SDS011;22846;42.654;23.314;2023-04-01T05:44:13;6.30;;;2.85;;
31336;SDS011;22846;42.654;23.314;2023-04-01T05:46:39;5.20;;;3.00;;
31336;SDS011;22846;42.654;23.314;2023-04-01T05:49:04;3.53;;;2.85;;
31336;SDS011;22846;42.654;23.314;2023-04-01T05:51:30;4.72;;;2.80;;
31336;SDS011;22846;42.654;23.314;2023-04-01T05:53:55;4.30;;;2.67;;
31336;SDS011;22846;42.654;23.314;2023-04-01T05:56:20;3.95;;;2.63;;
31336;SDS011;22846;42.654;23.314;2023-04-01T05:58:51;5.20;;;3.05;;
31336;SDS011;22846;42.654;23.314;2023-04-01T06:01:18;3.77;;;2.90;;
31336;SDS011;22846;42.654;23.314;2023-04-01T06:03:44;4.32;;;2.80;;
31336;SDS011;22846;42.654;23.314;2023-04-01T06:06:16;4.15;;;2.72;;
31336;SDS011;22846;42.654;23.314;2023-04-01T06:08:54;5.75;;;3.08;;
31336;SDS011;22846;42.654;23.314;2023-04-01T06:19:33;5.03;;;2.58;;
31336;SDS011;22846;42.654;23.314;2023-04-01T06:27:43;6.45;;;2.55;;
31336;SDS011;22846;42.654;23.314;2023-04-01T06:35:23;9.90;;;2.45;;
31336;SDS011;22846;42.654;23.314;2023-04-01T06:54:30;9.48;;;3.80;;
31336;SDS011;22846;42.654;23.314;2023-04-01T06:57:03;8.55;;;3.85;;
31336;SDS011;22846;42.654;23.314;2023-04-01T06:59:50;9.27;;;4.05;;
31336;SDS011;22846;42.654;23.314;2023-04-01T07:02:22;10.07;;;3.70;;
31336;SDS011;22846;42.654;23.314;2023-04-01T07:04:55;10.20;;;3.72;;
31336;SDS011;22846;42.654;23.314;2023-04-01T07:07:31;6.32;;;3.55;;
31336;SDS011;22846;42.654;23.314;2023-04-01T07:10:04;5.47;;;3.28;;
31336;SDS011;22846;42.654;23.314;2023-04-01T07:17:57;9.45;;;3.30;;
31336;SDS011;22846;42.654;23.314;2023-04-01T07:20:29;10.73;;;3.78;;
31336;SDS011;22846;42.654;23.314;2023-04-01T07:23:00;7.88;;;3.40;;
31336;SDS011;22846;42.654;23.314;2023-04-01T07:25:35;9.25;;;3.40;;
31336;SDS011;22846;42.654;23.314;2023-04-01T07:28:10;5.28;;;3.25;;
31336;SDS011;22846;42.654;23.314;2023-04-01T07:30:51;7.85;;;3.50;;
31336;SDS011;22846;42.654;23.314;2023-04-01T07:33:29;7.10;;;3.00;;
31336;SDS011;22846;42.654;23.314;2023-04-01T07:36:10;4.50;;;3.13;;
31336;SDS011;22846;42.654;23.314;2023-04-01T07:38:49;5.00;;;3.20;;
31336;SDS011;22846;42.654;23.314;2023-04-01T07:44:28;7.50;;;3.00;;
31336;SDS011;22846;42.654;23.314;2023-04-01T07:52:21;5.20;;;3.30;;
31336;SDS011;22846;42.654;23.314;2023-04-01T07:59:48;67.68;;;42.72;;
31336;SDS011;22846;42.654;23.314;2023-04-01T08:05:35;42.37;;;24.03;;
31336;SDS011;22846;42.654;23.314;2023-04-01T08:08:24;26.23;;;13.38;;
31336;SDS011;22846;42.654;23.314;2023-04-01T08:14:26;35.85;;;19.23;;
31336;SDS011;22846;42.654;23.314;2023-04-01T08:19:31;24.23;;;12.27;;
31336;SDS011;22846;42.654;23.314;2023-04-01T08:22:23;27.60;;;16.92;;
31336;SDS011;22846;42.654;23.314;2023-04-01T08:25:04;36.40;;;15.90;;
31336;SDS011;22846;42.654;23.314;2023-04-01T08:27:39;24.65;;;13.80;;
31336;SDS011;22846;42.654;23.314;2023-04-01T08:32:58;27.38;;;12.23;;
31336;SDS011;22846;42.654;23.314;2023-04-01T08:35:46;30.38;;;13.15;;
31336;SDS011;22846;42.654;23.314;2023-04-01T08:38:32;25.27;;;12.70;;
31336;SDS011;22846;42.654;23.314;2023-04-01T08:48:53;21.35;;;9.60;;
31336;SDS011;22846;42.654;23.314;2023-04-01T08:57:04;28.98;;;10.90;;
31336;SDS011;22846;42.654;23.314;2023-04-01T09:16:20;14.25;;;5.07;;
31336;SDS011;22846;42.654;23.314;2023-04-01T09:43:25;20.65;;;7.43;;
31336;SDS011;22846;42.654;23.314;2023-04-01T09:49:04;29.98;;;6.82;;
31336;SDS011;22846;42.654;23.314;2023-04-01T10:00:20;24.42;;;7.55;;
31336;SDS011;22846;42.654;23.314;2023-04-01T10:08:46;19.83;;;5.18;;
31336;SDS011;22846;42.654;23.314;2023-04-01T10:26:05;19.58;;;5.10;;
31336;SDS011;22846;42.654;23.314;2023-04-01T10:28:42;13.70;;;4.80;;
31336;SDS011;22846;42.654;23.314;2023-04-01T10:42:48;16.40;;;5.13;;
31336;SDS011;22846;42.654;23.314;2023-04-01T11:11:10;13.95;;;3.88;;
31336;SDS011;22846;42.654;23.314;2023-04-01T11:27:48;8.75;;;2.97;;
31336;SDS011;22846;42.654;23.314;2023-04-01T11:30:14;10.48;;;2.65;;
31336;SDS011;22846;42.654;23.314;2023-04-01T11:39:00;8.73;;;2.28;;
31336;SDS011;22846;42.654;23.314;2023-04-01T11:41:42;8.57;;;2.35;;
31336;SDS011;22846;42.654;23.314;2023-04-01T11:57:56;15.50;;;3.20;;
31336;SDS011;22846;42.654;23.314;2023-04-01T12:11:26;9.13;;;2.70;;
31336;SDS011;22846;42.654;23.314;2023-04-01T12:17:24;18.70;;;3.63;;
31336;SDS011;22846;42.654;23.314;2023-04-01T12:20:20;12.50;;;3.30;;
31336;SDS011;22846;42.654;23.314;2023-04-01T12:28:06;12.45;;;3.55;;
31336;SDS011;22846;42.654;23.314;2023-04-01T12:36:18;10.50;;;3.20;;
31336;SDS011;22846;42.654;23.314;2023-04-01T12:47:00;13.15;;;2.92;;
31336;SDS011;22846;42.654;23.314;2023-04-01T12:49:55;6.68;;;2.80;;
31336;SDS011;22846;42.654;23.314;2023-04-01T13:03:53;10.32;;;3.40;;
31336;SDS011;22846;42.654;23.314;2023-04-01T13:11:36;16.85;;;4.05;;
31336;SDS011;22846;42.654;23.314;2023-04-01T13:20:06;15.60;;;4.65;;
31336;SDS011;22846;42.654;23.314;2023-04-01T13:25:46;17.98;;;4.70;;
31336;SDS011;22846;42.654;23.314;2023-04-01T13:28:14;14.15;;;4.72;;
31336;SDS011;22846;42.654;23.314;2023-04-01T13:33:27;16.00;;;4.22;;
31336;SDS011;22846;42.654;23.314;2023-04-01T13:39:38;18.15;;;4.57;;
31336;SDS011;22846;42.654;23.314;2023-04-01T13:42:14;19.27;;;5.00;;
31336;SDS011;22846;42.654;23.314;2023-04-01T13:50:23;15.52;;;3.97;;
31336;SDS011;22846;42.654;23.314;2023-04-01T14:08:59;10.27;;;3.63;;
31336;SDS011;22846;42.654;23.314;2023-04-01T14:11:39;12.85;;;4.05;;
31336;SDS011;22846;42.654;23.314;2023-04-01T14:17:10;11.45;;;3.67;;
31336;SDS011;22846;42.654;23.314;2023-04-01T14:19:44;9.30;;;3.85;;
31336;SDS011;22846;42.654;23.314;2023-04-01T14:25:23;14.35;;;3.80;;
31336;SDS011;22846;42.654;23.314;2023-04-01T14:30:59;14.45;;;3.30;;
31336;SDS011;22846;42.654;23.314;2023-04-01T14:36:53;8.52;;;3.75;;
31336;SDS011;22846;42.654;23.314;2023-04-01T14:40:03;9.95;;;3.97;;
31336;SDS011;22846;42.654;23.314;2023-04-01T14:42:52;11.60;;;3.88;;
31336;SDS011;22846;42.654;23.314;2023-04-01T14:51:03;10.90;;;3.88;;
31336;SDS011;22846;42.654;23.314;2023-04-01T14:53:51;9.13;;;3.35;;
31336;SDS011;22846;42.654;23.314;2023-04-01T14:59:09;16.25;;;3.35;;
31336;SDS011;22846;42.654;23.314;2023-04-01T15:21:30;14.57;;;3.65;;
31336;SDS011;22846;42.654;23.314;2023-04-01T15:45:34;23.85;;;4.38;;
31336;SDS011;22846;42.654;23.314;2023-04-01T15:50:39;12.38;;;3.25;;
31336;SDS011;22846;42.654;23.314;2023-04-01T15:53:25;18.90;;;3.80;;
31336;SDS011;22846;42.654;23.314;2023-04-01T15:55:59;23.30;;;3.42;;
31336;SDS011;22846;42.654;23.314;2023-04-01T16:07:10;18.92;;;3.72;;
31336;SDS011;22846;42.654;23.314;2023-04-01T16:18:45;46.72;;;26.95;;
31336;SDS011;22846;42.654;23.314;2023-04-01T16:26:22;37.08;;;20.67;;
31336;SDS011;22846;42.654;23.314;2023-04-01T16:33:58;35.92;;;18.63;;
31336;SDS011;22846;42.654;23.314;2023-04-01T16:44:31;34.53;;;17.60;;
31336;SDS011;22846;42.654;23.314;2023-04-01T16:47:29;41.97;;;18.52;;
31336;SDS011;22846;42.654;23.314;2023-04-01T16:54:02;34.42;;;18.45;;
31336;SDS011;22846;42.654;23.314;2023-04-01T16:56:14;33.92;;;18.92;;
31336;SDS011;22846;42.654;23.314;2023-04-01T17:01:43;33.10;;;18.75;;
31336;SDS011;22846;42.654;23.314;2023-04-01T17:04:20;28.77;;;16.58;;
31336;SDS011;22846;42.654;23.314;2023-04-01T17:14:45;30.52;;;15.00;;
31336;SDS011;22846;42.654;23.314;2023-04-01T17:20:26;23.08;;;14.05;;
31336;SDS011;22846;42.654;23.314;2023-04-01T17:23:12;20.60;;;13.20;;
31336;SDS011;22846;42.654;23.314;2023-04-01T17:25:50;24.52;;;13.63;;
31336;SDS011;22846;42.654;23.314;2023-04-01T17:28:24;21.40;;;12.43;;
31336;SDS011;22846;42.654;23.314;2023-04-01T17:31:02;20.55;;;13.07;;
31336;SDS011;22846;42.654;23.314;2023-04-01T17:36:21;19.85;;;12.10;;
31336;SDS011;22846;42.654;23.314;2023-04-01T17:50:08;19.88;;;10.52;;
31336;SDS011;22846;42.654;23.314;2023-04-01T17:55:56;76.10;;;48.42;;
31336;SDS011;22846;42.654;23.314;2023-04-01T17:58:33;94.45;;;56.83;;
31336;SDS011;22846;42.654;23.314;2023-04-01T18:04:06;84.57;;;51.90;;
31336;SDS011;22846;42.654;23.314;2023-04-01T18:12:13;66.22;;;38.95;;
31336;SDS011;22846;42.654;23.314;2023-04-01T18:22:41;68.70;;;45.47;;
31336;SDS011;22846;42.654;23.314;2023-04-01T18:30:54;62.45;;;38.63;;
31336;SDS011;22846;42.654;23.314;2023-04-01T18:33:29;49.80;;;31.00;;
31336;SDS011;22846;42.654;23.314;2023-04-01T18:52:36;89.85;;;59.20;;
31336;SDS011;22846;42.654;23.314;2023-04-01T19:00:25;80.63;;;54.67;;
31336;SDS011;22846;42.654;23.314;2023-04-01T19:41:04;32.03;;;20.65;;
31336;SDS011;22846;42.654;23.314;2023-04-01T19:46:42;55.35;;;37.58;;
31336;SDS011;22846;42.654;23.314;2023-04-01T19:49:18;84.00;;;53.60;;
31336;SDS011;22846;42.654;23.314;2023-04-01T19:51:58;70.43;;;48.53;;
31336;SDS011;22846;42.654;23.314;2023-04-01T19:54:34;59.28;;;40.58;;
31336;SDS011;22846;42.654;23.314;2023-04-01T20:02:39;52.10;;;35.47;;
31336;SDS011;22846;42.654;23.314;2023-04-01T20:05:29;53.85;;;34.42;;
31336;SDS011;22846;42.654;23.314;2023-04-01T20:08:17;50.53;;;34.38;;
31336;SDS011;22846;42.654;23.314;2023-04-01T20:16:13;41.38;;;30.42;;
31336;SDS011;22846;42.654;23.314;2023-04-01T20:21:33;41.43;;;29.23;;
31336;SDS011;22846;42.654;23.314;2023-04-01T20:24:04;36.15;;;24.27;;
31336;SDS011;22846;42.654;23.314;2023-04-01T20:27:35;37.30;;;27.42;;
31336;SDS011;22846;42.654;23.314;2023-04-01T20:44:41;28.33;;;20.08;;
31336;SDS011;22846;42.654;23.314;2023-04-01T20:47:41;30.90;;;21.45;;
31336;SDS011;22846;42.654;23.314;2023-04-01T20:52:49;35.40;;;24.98;;
31336;SDS011;22846;42.654;23.314;2023-04-01T21:01:39;76.45;;;51.63;;
31336;SDS011;22846;42.654;23.314;2023-04-01T21:07:11;60.67;;;43.50;;
31336;SDS011;22846;42.654;23.314;2023-04-01T21:23:12;58.78;;;41.45;;
31336;SDS011;22846;42.654;23.314;2023-04-01T21:38:52;60.58;;;42.05;;
31336;SDS011;22846;42.654;23.314;2023-04-01T21:41:24;37.65;;;25.23;;
31336;SDS011;22846;42.654;23.314;2023-04-01T21:44:11;30.13;;;21.92;;
31336;SDS011;22846;42.654;23.314;2023-04-01T22:00:32;38.30;;;27.33;;
31336;SDS011;22846;42.654;23.314;2023-04-01T22:19:00;37.45;;;27.52;;
31336;SDS011;22846;42.654;23.314;2023-04-01T22:27:03;42.85;;;30.70;;
31336;SDS011;22846;42.654;23.314;2023-04-01T22:29:48;40.28;;;29.17;;
31336;SDS011;22846;42.654;23.314;2023-04-01T22:32:36;38.17;;;28.35;;
31336;SDS011;22846;42.654;23.314;2023-04-01T22:40:23;41.10;;;30.77;;
31336;SDS011;22846;42.654;23.314;2023-04-01T22:42:52;39.88;;;29.75;;
31336;SDS011;22846;42.654;23.314;2023-04-01T22:51:21;35.60;;;27.13;;
31336;SDS011;22846;42.654;23.314;2023-04-01T22:54:14;37.00;;;27.13;;
31336;SDS011;22846;42.654;23.314;2023-04-01T22:56:52;36.20;;;26.55;;
31336;SDS011;22846;42.654;23.314;2023-04-01T22:59:24;36.65;;;26.75;;
31336;SDS011;22846;42.654;23.314;2023-04-01T23:02:01;35.33;;;26.35;;
31336;SDS011;22846;42.654;23.314;2023-04-01T23:04:32;34.22;;;25.10;;
31336;SDS011;22846;42.654;23.314;2023-04-01T23:07:05;36.30;;;26.65;;
31336;SDS011;22846;42.654;23.314;2023-04-01T23:09:49;33.85;;;24.52;;
31336;SDS011;22846;42.654;23.314;2023-04-01T23:12:16;32.47;;;24.25;;
31336;SDS011;22846;42.654;23.314;2023-04-01T23:20:14;31.15;;;23.17;;
31336;SDS011;22846;42.654;23.314;2023-04-01T23:25:33;31.67;;;22.80;;
31336;SDS011;22846;42.654;23.314;2023-04-01T23:31:25;27.90;;;20.40;;
31336;SDS011;22846;42.654;23.314;2023-04-01T23:33:54;27.20;;;20.10;;
31336;SDS011;22846;42.654;23.314;2023-04-01T23:36:51;28.23;;;20.55;;
31336;SDS011;22846;42.654;23.314;2023-04-01T23:39:21;26.00;;;19.95;;
31336;SDS011;22846;42.654;23.314;2023-04-01T23:41:47;27.38;;;19.98;;
31336;SDS011;22846;42.654;23.314;2023-04-01T23:44:14;26.33;;;19.35;;
31336;SDS011;22846;42.654;23.314;2023-04-01T23:46:41;24.85;;;18.70;;
31336;SDS011;22846;42.654;23.314;2023-04-01T23:49:20;23.05;;;18.25;;
31336;SDS011;22846;42.654;23.314;2023-04-01T23:51:52;23.00;;;17.73;;
31336;SDS011;22846;42.654;23.314;2023-04-01T23:54:31;23.15;;;17.38;;
31336;SDS011;22846;42.654;23.314;2023-04-01T23:56:59;22.42;;;17.60;;
31336;SDS011;22846;42.654;23.314;2023-04-01T23:59:33;23.20;;;17.70;;
